Josephine Anne — WDD9858 — position and weather

sailwx.info

Track history (hours):
 
Tides and Currents Weather Stations Pressure Air Temp Water Temp Dewpoint Dewpoint Depression Visibility Wind Speed Wind Dir Waves Ship Positions

Josephine Anne

Owner: E.N. Bisso & Son, Inc., New Orleans, LA. More information available from US FCC via Universal Licensing System and Coast Guard Vessel Documentation Center.

Last reported at 2016-Dec-04 17:26 UTC. Time now 2016-Dec-04 18:26 UTC.
Position N 29°58' W 090°15'.

Length 29 m; draft 4.3 m.

Type: Tug. MMSI: 367317270.

Date/timePositionNaut miles runAvg speedWind from/ knotsBaromVisibWave heightAir tempDewpointWater temp
2016-Dec-04 17:26N 29°58' W 090°15'6 6.8
2016-Dec-04 16:33N 29°56' W 090°08'2 0.2
2016-Dec-04 04:32N 29°56' W 090°10'4 0.8
2016-Dec-03 23:25N 29°58' W 090°15'6 7.0
2016-Dec-03 22:33N 29°56' W 090°08'1 0.0
2016-Dec-02 16:07N 29°56' W 090°08'0 0.0
2016-Dec-02 13:33N 29°56' W 090°09'0 0.0
2016-Dec-02 12:33N 29°56' W 090°09'0 0.0
2016-Dec-01 18:04N 29°56' W 090°08'3 5.3
2016-Dec-01 17:30N 29°55' W 090°12'0 0.0
2016-Dec-01 16:31N 29°55' W 090°12'  
2016-Nov-27 12:26N 29°55' W 090°08'  
Track history (hours):
 
Tides and Currents Weather Stations Pressure Air Temp Water Temp Dewpoint Dewpoint Depression Visibility Wind Speed Wind Dir Waves Ship Positions

Josephine Anne

Owner: E.N. Bisso & Son, Inc., New Orleans, LA. More information available from US FCC via Universal Licensing System and Coast Guard Vessel Documentation Center.

Last reported at 2016-Dec-04 17:26 UTC. Time now 2016-Dec-04 18:26 UTC.
Position N 29°58' W 090°15'.

Length 29 m; draft 4.3 m.

Type: Tug. MMSI: 367317270.

Date/timePositionNaut miles runAvg speedWind from/ knotsBaromVisibWave heightAir tempDewpointWater temp
2016-Dec-04 17:26N 29°58' W 090°15'6 6.8
2016-Dec-04 16:33N 29°56' W 090°08'2 0.2
2016-Dec-04 04:32N 29°56' W 090°10'4 0.8
2016-Dec-03 23:25N 29°58' W 090°15'6 7.0
2016-Dec-03 22:33N 29°56' W 090°08'1 0.0
2016-Dec-02 16:07N 29°56' W 090°08'0 0.0
2016-Dec-02 13:33N 29°56' W 090°09'0 0.0
2016-Dec-02 12:33N 29°56' W 090°09'0 0.0
2016-Dec-01 18:04N 29°56' W 090°08'3 5.3
2016-Dec-01 17:30N 29°55' W 090°12'0 0.0
2016-Dec-01 16:31N 29°55' W 090°12'  
2016-Nov-27 12:26N 29°55' W 090°08'  

Dump ship's entire track history